createdAt,value
2019-03-21T00:04:39.581Z,-0.60
2019-03-21T00:15:57.680Z,-0.70
2019-03-21T00:21:00.728Z,-0.60
2019-03-21T00:26:03.692Z,-0.60
2019-03-21T00:31:06.814Z,-0.60
2019-03-21T00:36:10.524Z,-0.70
2019-03-21T00:41:13.873Z,-0.70
2019-03-21T00:46:16.851Z,-0.70
2019-03-21T00:51:19.924Z,-0.60
2019-03-21T00:56:24.021Z,-0.70
2019-03-21T01:01:28.949Z,-0.70
2019-03-21T01:06:32.152Z,-0.70
2019-03-21T01:11:35.190Z,-2.00
2019-03-21T01:16:38.411Z,-0.80
2019-03-21T01:21:41.616Z,-0.80
2019-03-21T01:26:44.843Z,-0.80
2019-03-21T01:31:47.884Z,-0.90
2019-03-21T01:36:50.978Z,-0.90
2019-03-21T01:41:54.011Z,-0.90
2019-03-21T01:46:57.008Z,-1.00
2019-03-21T01:52:01.519Z,-1.00
2019-03-21T01:57:04.573Z,-1.00
2019-03-21T02:02:07.559Z,-1.10
2019-03-21T02:07:11.264Z,-1.10
2019-03-21T02:12:15.163Z,-1.10
2019-03-21T02:17:18.255Z,-1.20
2019-03-21T02:22:21.191Z,-1.30
2019-03-21T02:27:24.645Z,-1.30
2019-03-21T02:32:27.621Z,-1.40
2019-03-21T02:37:30.845Z,-1.50
2019-03-21T02:42:33.804Z,-1.50
2019-03-21T02:47:36.749Z,-1.50
2019-03-21T02:52:39.814Z,-1.60
2019-03-21T02:57:42.846Z,-1.60
2019-03-21T03:02:46.193Z,-1.70
2019-03-21T03:07:49.780Z,-1.70
2019-03-21T03:12:53.203Z,-1.70
2019-03-21T03:17:56.608Z,-1.70
2019-03-21T03:22:59.586Z,-1.70
2019-03-21T03:28:05.690Z,-1.70
2019-03-21T03:33:08.695Z,-1.70
2019-03-21T03:38:11.893Z,-1.70
2019-03-21T03:43:14.934Z,-1.70
2019-03-21T03:48:19.943Z,-1.80
2019-03-21T03:53:22.716Z,-1.80
2019-03-21T03:58:25.794Z,-1.80
2019-03-21T04:03:28.712Z,-1.80
2019-03-21T04:08:31.795Z,-1.90
2019-03-21T04:13:35.037Z,-1.90
2019-03-21T04:18:37.983Z,-1.90
2019-03-21T04:23:41.145Z,-1.90
2019-03-21T04:28:43.980Z,-1.90
2019-03-21T04:33:46.912Z,-1.80
2019-03-21T04:55:39.036Z,-1.50
2019-03-21T05:06:56.325Z,-1.60
2019-03-21T05:12:00.712Z,-1.70
2019-03-21T05:17:03.971Z,-1.70
2019-03-21T05:22:07.055Z,-1.70
2019-03-21T06:06:36.617Z,-0.80
2019-03-21T06:11:43.304Z,-0.40
2019-03-21T06:16:47.111Z,-0.10
2019-03-21T06:22:27.463Z,0.10
2019-03-21T06:27:30.405Z,0.40
2019-03-21T06:32:33.479Z,0.60
2019-03-21T06:37:36.451Z,0.90
2019-03-21T06:42:40.729Z,1.20
2019-03-21T06:47:44.246Z,1.50
2019-03-21T06:52:47.065Z,1.90
2019-03-21T06:57:50.376Z,2.30
2019-03-21T07:02:53.347Z,2.80
2019-03-21T07:07:56.311Z,3.10
2019-03-21T07:13:00.108Z,3.50
2019-03-21T07:18:03.044Z,3.90
2019-03-21T07:23:06.072Z,4.30
2019-03-21T07:28:09.389Z,4.60
2019-03-21T07:33:12.349Z,5.00
2019-03-21T07:38:15.279Z,5.30
2019-03-21T07:43:19.259Z,5.60
2019-03-21T07:48:22.204Z,5.90
2019-03-21T07:53:25.884Z,6.10
2019-03-21T07:58:29.191Z,6.40
2019-03-21T08:03:32.816Z,6.70
2019-03-21T08:08:36.023Z,6.90
2019-03-21T08:13:39.700Z,7.10
2019-03-21T08:18:42.683Z,7.30
2019-03-21T08:23:45.619Z,7.50
2019-03-21T08:28:48.867Z,7.80
2019-03-21T08:33:51.814Z,7.90
2019-03-21T08:38:55.078Z,8.20
2019-03-21T08:43:59.284Z,8.40
2019-03-21T08:49:02.189Z,8.60
2019-03-21T08:54:05.210Z,8.80
2019-03-21T08:59:08.150Z,9.00
2019-03-21T09:04:12.136Z,9.30
2019-03-21T09:09:15.143Z,9.50
2019-03-21T09:14:18.669Z,9.70
2019-03-21T09:19:21.924Z,10.00
2019-03-21T09:24:25.172Z,10.10
2019-03-21T09:29:29.151Z,10.30
2019-03-21T09:34:32.177Z,10.50
2019-03-21T09:39:36.497Z,10.70
2019-03-21T09:44:40.644Z,11.00
2019-03-21T09:49:43.740Z,11.10
2019-03-21T09:54:46.679Z,11.30
2019-03-21T09:59:49.627Z,11.40
2019-03-21T10:04:52.731Z,11.60
2019-03-21T10:09:55.601Z,11.60
2019-03-21T10:15:00.847Z,11.90
2019-03-21T10:20:04.198Z,12.00
2019-03-21T10:25:07.908Z,12.30
2019-03-21T10:30:13.340Z,12.50
2019-03-21T10:35:16.331Z,12.70
2019-03-21T10:40:19.935Z,12.90
2019-03-21T10:45:24.246Z,13.10
2019-03-21T10:50:32.184Z,13.20
2019-03-21T10:55:35.291Z,13.20
2019-03-21T11:00:39.083Z,13.30
2019-03-21T11:05:42.080Z,13.50
2019-03-21T11:10:47.172Z,13.70
2019-03-21T11:15:51.112Z,13.90
2019-03-21T11:20:54.223Z,14.10
2019-03-21T11:25:57.168Z,14.30
2019-03-21T11:31:00.565Z,14.40
2019-03-21T11:36:03.471Z,14.60
2019-03-21T11:41:06.745Z,14.70
2019-03-21T11:46:09.995Z,14.80
2019-03-21T11:51:13.078Z,14.90
2019-03-21T11:56:16.277Z,15.20
2019-03-21T12:01:19.239Z,15.20
2019-03-21T12:06:22.352Z,15.40
2019-03-21T12:11:25.400Z,15.50
2019-03-21T12:16:30.336Z,15.50
2019-03-21T12:21:33.192Z,15.60
2019-03-21T12:26:36.452Z,15.70
2019-03-21T12:31:39.548Z,15.80
2019-03-21T12:36:42.699Z,16.00
2019-03-21T12:41:45.607Z,16.10
2019-03-21T12:46:48.592Z,16.20
2019-03-21T12:51:51.646Z,16.30
2019-03-21T12:56:54.496Z,16.50
2019-03-21T13:01:57.429Z,16.60
2019-03-21T13:07:00.392Z,16.70
2019-03-21T13:12:03.416Z,16.70
2019-03-21T13:17:06.350Z,16.60
2019-03-21T13:22:09.499Z,16.80
2019-03-21T13:27:12.616Z,16.90
2019-03-21T13:32:15.540Z,17.00
2019-03-21T13:37:18.721Z,17.10
2019-03-21T13:42:21.734Z,17.00
2019-03-21T13:47:24.652Z,16.90
2019-03-21T13:52:27.959Z,16.90
2019-03-21T13:57:31.320Z,16.90
2019-03-21T14:02:34.204Z,16.80
2019-03-21T14:07:37.424Z,16.90
2019-03-21T14:12:40.534Z,16.90
2019-03-21T14:17:43.427Z,17.00
2019-03-21T14:22:47.185Z,17.00
2019-03-21T14:27:50.177Z,17.00
2019-03-21T14:32:53.084Z,17.20
2019-03-21T14:37:56.037Z,17.60
2019-03-21T14:42:59.035Z,18.70
2019-03-21T14:48:02.335Z,20.30
2019-03-21T14:53:05.300Z,22.20
2019-03-21T14:58:08.197Z,23.60
2019-03-21T15:03:12.796Z,24.50
2019-03-21T15:08:15.642Z,25.40
2019-03-21T15:13:18.548Z,26.20
2019-03-21T15:18:21.444Z,26.40
2019-03-21T15:23:26.161Z,27.00
2019-03-21T15:28:29.195Z,27.50
2019-03-21T15:33:32.167Z,27.30
2019-03-21T15:38:35.122Z,27.00
2019-03-21T15:43:38.015Z,26.70
2019-03-21T15:48:41.020Z,27.00
2019-03-21T15:53:54.564Z,27.30
2019-03-21T15:58:49.503Z,27.00
2019-03-21T16:03:52.683Z,26.60
2019-03-21T16:08:56.317Z,26.00
2019-03-21T16:13:59.218Z,26.00
2019-03-21T16:19:01.999Z,25.80
2019-03-21T16:24:06.155Z,25.30
2019-03-21T16:29:10.309Z,24.80
2019-03-21T16:34:13.379Z,24.40
2019-03-21T16:39:17.795Z,23.90
2019-03-21T16:44:20.803Z,23.50
2019-03-21T16:49:23.731Z,22.90
2019-03-21T16:54:26.891Z,22.10
2019-03-21T16:59:31.138Z,20.80
2019-03-21T17:04:34.864Z,19.40
2019-03-21T17:09:37.895Z,18.20
2019-03-21T17:14:40.852Z,17.10
2019-03-21T17:19:43.901Z,16.20
2019-03-21T17:24:46.894Z,15.30
2019-03-21T17:29:50.875Z,14.50
2019-03-21T17:34:53.788Z,13.70
2019-03-21T17:39:56.791Z,13.00
2019-03-21T17:44:59.794Z,12.40
2019-03-21T17:50:03.165Z,11.90
2019-03-21T17:55:07.388Z,11.40
2019-03-21T18:00:13.653Z,11.00
2019-03-21T18:05:17.150Z,10.70
2019-03-21T18:10:26.616Z,10.40
2019-03-21T18:15:29.573Z,10.10
2019-03-21T18:20:33.519Z,9.70
2019-03-21T18:25:36.467Z,9.50
2019-03-21T18:30:39.719Z,9.30
2019-03-21T18:35:42.649Z,9.20
2019-03-21T18:40:45.564Z,9.00
2019-03-21T18:45:48.577Z,8.80
2019-03-21T18:50:52.139Z,8.60
2019-03-21T18:55:55.495Z,8.50
2019-03-21T19:00:58.843Z,8.40
2019-03-21T19:06:01.840Z,8.40
2019-03-21T19:11:05.186Z,8.40
2019-03-21T19:16:08.333Z,8.30
2019-03-21T19:21:12.509Z,8.20
2019-03-21T19:26:16.137Z,8.10
2019-03-21T19:31:19.875Z,8.10
2019-03-21T19:36:22.739Z,7.90
2019-03-21T19:41:27.251Z,7.80
2019-03-21T19:46:30.401Z,7.60
2019-03-21T19:51:33.563Z,7.60
2019-03-21T19:56:36.697Z,7.50
2019-03-21T20:01:40.709Z,7.50
2019-03-21T20:06:45.128Z,7.50
2019-03-21T20:11:48.160Z,7.40
2019-03-21T20:16:51.764Z,7.20
2019-03-21T20:21:54.951Z,7.00
2019-03-21T20:26:57.883Z,6.70
2019-03-21T20:32:00.964Z,6.40
2019-03-21T20:37:04.045Z,6.20
2019-03-21T20:42:08.785Z,6.10
2019-03-21T20:47:12.463Z,5.90
2019-03-21T20:52:16.523Z,5.70
2019-03-21T20:57:19.656Z,5.60
2019-03-21T21:02:23.531Z,5.50
2019-03-21T21:07:27.804Z,5.30
2019-03-21T21:12:30.997Z,5.20
2019-03-21T21:17:34.260Z,5.20
2019-03-21T21:22:38.128Z,5.10
2019-03-21T21:27:49.167Z,5.10
2019-03-21T21:32:47.181Z,5.10
2019-03-21T21:37:50.423Z,5.00
2019-03-21T21:42:53.532Z,4.80
2019-03-21T21:47:56.837Z,4.70
2019-03-21T21:52:59.848Z,4.60
2019-03-21T21:58:03.568Z,4.40
2019-03-21T22:03:07.020Z,4.30
2019-03-21T22:08:10.243Z,4.20
2019-03-21T22:13:13.368Z,4.10
2019-03-21T22:18:16.315Z,4.00
2019-03-21T22:23:19.349Z,3.90
2019-03-21T22:28:22.398Z,3.80
2019-03-21T22:33:26.603Z,3.70
2019-03-21T22:38:29.870Z,3.50
2019-03-21T22:43:33.087Z,3.50
2019-03-21T22:48:36.172Z,3.50
2019-03-21T22:53:39.318Z,3.40
2019-03-21T22:58:42.309Z,3.40
2019-03-21T23:03:45.575Z,3.30
2019-03-21T23:08:48.665Z,3.30
2019-03-21T23:13:52.816Z,3.20
2019-03-21T23:18:55.883Z,3.20
2019-03-21T23:23:58.858Z,3.10
2019-03-21T23:29:02.431Z,3.10
2019-03-21T23:34:07.190Z,3.00
2019-03-21T23:39:10.266Z,3.00
2019-03-21T23:44:14.425Z,2.90
2019-03-21T23:49:17.515Z,2.80
2019-03-21T23:54:20.590Z,2.70
2019-03-21T23:59:24.667Z,2.70
